Sandbeach, Pennsylvania
Current Conditions -  °F | °C
As of 9:03 AM on Monday 24 Nov 2014 (Local Time) from KMDT Reporting Station
Broken Clouds Broken Clouds  
Wind Chill: 64°   Ceiling: 2600
Heat Index: 64°   Visibility: 10mi
Dew Point: 56°   Wind: 16mph
Humidity: 75%   Direction: 210°SSW
Pressure: 29.62"   Gusts: 25mph
Location:  40.2634°N, 76.626°W
Report Text: KMDT 241403Z 21014G22KT 10SM BKN026 18/13 A2962 RMK AO2 T01780133
Loading
Personal Weather Stations






























Interactive Weather Map New forecast layout! Learn more

10-Day Weather Forecast

Advertisements
Track Severe Weather on mobile